Time;durP1;ratioP1;P1;durP2;ratioP2;P2;SDS_P1;SDS_P2;PMS_P1;PMS_P2;Temp;Humidity;BMP_temperature;BMP_pressure;BME280_temperature;BME280_humidity;BME280_pressure;Samples;Min_cycle;Max_cycle;Signal;HPM_P1;HPM_P2
2022/10/05 00:00:16;;;;;;;14.97;9.97;;;;;;;10.19;100.00;95572.22;5065360;28;20588;-80
2022/10/05 00:02:43;;;;;;;15.67;9.97;;;;;;;10.13;100.00;95557.38;5060242;28;20220;-80
2022/10/05 00:05:21;;;;;;;19.23;10.17;;;;;;;10.12;100.00;95562.75;5060141;28;20213;-79
2022/10/05 00:07:49;;;;;;;22.73;10.00;;;;;;;10.02;100.00;95565.69;5058725;28;20197;-80
2022/10/05 00:10:19;;;;;;;16.00;11.00;;;;;;;9.98;100.00;95558.50;5058656;28;20210;-80
2022/10/05 00:12:47;;;;;;;19.03;10.47;;;;;;;10.01;100.00;95565.91;5062066;28;20323;-80
2022/10/05 00:15:16;;;;;;;14.87;10.40;;;;;;;9.65;100.00;95558.28;5060026;28;20737;-80
2022/10/05 00:17:43;;;;;;;19.13;11.10;;;;;;;9.24;100.00;95560.75;5062378;28;20212;-80
2022/10/05 00:20:21;;;;;;;22.07;10.83;;;;;;;8.83;100.00;95550.22;5057693;28;20220;-80
2022/10/05 00:22:48;;;;;;;15.63;10.77;;;;;;;8.83;100.00;95552.03;5062851;28;20204;-80
2022/10/05 00:25:18;;;;;;;18.20;11.67;;;;;;;8.89;100.00;95559.84;5057368;28;20220;-80
2022/10/05 00:27:52;;;;;;;19.13;11.50;;;;;;;9.06;100.00;95557.84;5056798;28;20210;-82
2022/10/05 00:30:20;;;;;;;21.10;12.47;;;;;;;9.15;100.00;95556.69;5062372;28;20201;-80
2022/10/05 00:32:48;;;;;;;16.50;11.63;;;;;;;9.19;100.00;95557.94;5058735;28;20233;-80
2022/10/05 00:35:16;;;;;;;18.23;11.70;;;;;;;9.26;100.00;95555.41;5056691;28;20209;-80
2022/10/05 00:37:47;;;;;;;18.43;12.03;;;;;;;9.29;100.00;95555.03;5053577;28;20214;-80
2022/10/05 00:40:27;;;;;;;15.47;11.50;;;;;;;9.32;100.00;95552.06;5059876;28;20205;-80
2022/10/05 00:43:07;;;;;;;18.77;12.20;;;;;;;9.27;100.00;95547.41;5056038;28;20209;-80
2022/10/05 00:45:38;;;;;;;17.83;12.10;;;;;;;9.36;100.00;95554.09;5057644;28;20252;-79
2022/10/05 00:48:15;;;;;;;18.03;10.97;;;;;;;9.34;100.00;95569.03;5062433;28;20205;-79
2022/10/05 00:50:55;;;;;;;15.47;9.03;;;;;;;9.34;100.00;95565.63;5052467;28;20212;-80
2022/10/05 00:53:38;;;;;;;10.37;7.07;;;;;;;9.34;100.00;95565.63;5055146;28;20201;-81
2022/10/05 00:56:14;;;;;;;12.47;7.47;;;;;;;9.38;100.00;95561.69;5057675;28;20235;-82
2022/10/05 00:58:55;;;;;;;12.67;8.47;;;;;;;9.40;100.00;95565.69;5052509;28;20205;-82
2022/10/05 01:01:30;;;;;;;10.37;7.77;;;;;;;9.43;100.00;95570.50;5054202;28;20198;-82
2022/10/05 01:04:07;;;;;;;7.40;6.07;;;;;;;9.43;100.00;95573.09;5056925;28;20197;-82
2022/10/05 01:06:44;;;;;;;8.33;6.47;;;;;;;9.39;100.00;95573.66;5063608;28;20211;-80
2022/10/05 01:09:21;;;;;;;11.97;5.93;;;;;;;9.41;100.00;95582.03;5058246;28;20204;-81
2022/10/05 01:11:54;;;;;;;8.07;6.20;;;;;;;9.35;100.00;95580.22;5057868;28;20257;-81
2022/10/05 01:14:27;;;;;;;9.23;6.47;;;;;;;9.32;100.00;95580.59;5064031;28;20579;-82
2022/10/05 01:17:01;;;;;;;10.03;6.60;;;;;;;9.31;100.00;95578.97;5054963;28;20255;-77
2022/10/05 01:19:44;;;;;;;17.07;7.47;;;;;;;9.33;100.00;95582.19;5060624;28;20201;-77
2022/10/05 01:22:26;;;;;;;9.23;6.63;;;;;;;9.37;100.00;95586.03;5057965;28;20609;-77
2022/10/05 01:25:06;;;;;;;9.13;6.77;;;;;;;9.32;100.00;95599.53;5063586;28;20209;-76
2022/10/05 01:27:40;;;;;;;9.97;6.93;;;;;;;9.24;100.00;95591.88;5062529;28;20198;-77
2022/10/05 01:30:11;;;;;;;10.03;6.90;;;;;;;9.17;100.00;95585.84;5058313;28;20201;-75
2022/10/05 01:32:44;;;;;;;10.27;7.10;;;;;;;8.72;100.00;95597.34;5058810;28;20221;-76
2022/10/05 01:35:25;;;;;;;11.87;7.47;;;;;;;8.29;100.00;95600.81;5052607;28;20244;-75
2022/10/05 01:38:05;;;;;;;11.67;7.83;;;;;;;8.20;100.00;95607.03;5061298;28;20213;-77
2022/10/05 01:40:39;;;;;;;10.40;7.57;;;;;;;8.31;100.00;95606.66;5060986;28;20205;-77
2022/10/05 01:43:14;;;;;;;12.67;7.73;;;;;;;8.47;100.00;95611.63;5057517;28;20201;-77
2022/10/05 01:45:55;;;;;;;10.00;7.40;;;;;;;8.55;100.00;95627.06;5060469;28;21176;-75
2022/10/05 01:48:35;;;;;;;11.13;7.40;;;;;;;8.68;100.00;95629.00;5060495;28;20189;-75
2022/10/05 01:51:09;;;;;;;11.23;7.77;;;;;;;8.69;100.00;95630.59;5065434;28;20225;-74
2022/10/05 01:53:49;;;;;;;8.53;6.70;;;;;;;8.79;100.00;95633.72;5061051;28;20203;-76
2022/10/05 01:56:22;;;;;;;11.27;7.37;;;;;;;8.82;100.00;95638.53;5060065;28;20212;-75
2022/10/05 01:59:00;;;;;;;9.37;6.93;;;;;;;8.83;100.00;95637.56;5063659;28;20205;-75
2022/10/05 02:01:35;;;;;;;9.87;7.33;;;;;;;8.85;100.00;95645.94;5060164;28;20205;-74
2022/10/05 02:04:10;;;;;;;10.43;7.10;;;;;;;8.83;100.00;95640.94;5066388;28;20205;-76
2022/10/05 02:06:41;;;;;;;9.83;7.03;;;;;;;8.76;100.00;95642.66;5062518;28;20201;-76
2022/10/05 02:09:15;;;;;;;11.63;7.23;;;;;;;8.80;100.00;95637.91;5062614;28;20194;-76
2022/10/05 02:11:45;;;;;;;10.47;7.03;;;;;;;8.85;100.00;95640.75;5062311;28;20222;-78
2022/10/05 02:14:18;;;;;;;10.00;7.10;;;;;;;8.86;100.00;95639.78;5061289;28;20213;-77
2022/10/05 02:16:48;;;;;;;8.23;6.83;;;;;;;8.84;100.00;95642.53;5061945;28;20205;-77
2022/10/05 02:19:21;;;;;;;10.30;7.30;;;;;;;8.77;100.00;95639.09;5063374;28;20216;-77
2022/10/05 02:21:53;;;;;;;9.27;7.50;;;;;;;8.74;100.00;95639.47;5059123;28;20284;-77
2022/10/05 02:24:24;;;;;;;9.37;7.37;;;;;;;8.73;100.00;95637.03;5059067;28;20201;-76
2022/10/05 02:26:53;;;;;;;12.43;7.67;;;;;;;8.67;100.00;95640.34;5059901;28;20209;-76
2022/10/05 02:29:26;;;;;;;25.70;16.43;;;;;;;8.52;100.00;95628.22;5058408;28;20255;-76
2022/10/05 02:31:57;;;;;;;26.60;16.30;;;;;;;8.64;100.00;95646.69;5062851;28;20244;-76
2022/10/05 02:34:27;;;;;;;27.63;15.73;;;;;;;8.62;100.00;95653.06;5061432;28;20216;-76
2022/10/05 02:37:15;;;;;;;23.63;13.93;;;;;;;8.57;100.00;95651.00;5052967;28;20229;-76
2022/10/05 02:39:52;;;;;;;25.87;14.00;;;;;;;8.11;100.00;95636.63;5057878;28;20206;-76
2022/10/05 02:42:31;;;;;;;21.53;13.90;;;;;;;7.69;100.00;95635.41;5058684;28;20209;-76
2022/10/05 02:45:11;;;;;;;26.43;13.67;;;;;;;7.66;100.00;95640.13;5057296;28;20212;-76
2022/10/05 02:47:46;;;;;;;24.00;15.30;;;;;;;7.70;100.00;95643.97;5059045;28;20232;-77
2022/10/05 02:50:25;;;;;;;24.30;14.67;;;;;;;7.80;100.00;95645.31;5064043;28;20224;-77
2022/10/05 02:53:00;;;;;;;24.07;16.97;;;;;;;7.95;100.00;95622.06;5056251;28;20225;-77
2022/10/05 02:55:37;;;;;;;22.63;14.93;;;;;;;8.07;100.00;95635.34;5059222;28;20209;-77
2022/10/05 02:58:12;;;;;;;28.03;15.77;;;;;;;8.11;100.00;95647.75;5062784;28;20212;-77
2022/10/05 03:00:45;;;;;;;26.93;15.83;;;;;;;8.19;100.00;95641.69;5059544;28;20200;-78
2022/10/05 03:03:23;;;;;;;29.23;15.43;;;;;;;8.20;100.00;95645.88;5057975;28;20206;-76
2022/10/05 03:05:55;;;;;;;23.87;15.60;;;;;;;8.21;100.00;95650.91;5062629;28;20590;-76
2022/10/05 03:08:26;;;;;;;25.97;16.20;;;;;;;8.23;100.00;95648.13;5062292;28;20224;-76
2022/10/05 03:11:03;;;;;;;30.13;16.60;;;;;;;8.27;100.00;95646.78;5054540;28;20228;-76
2022/10/05 03:13:37;;;;;;;27.40;14.10;;;;;;;8.24;100.00;95650.53;5057711;28;20221;-75
2022/10/05 03:16:18;;;;;;;24.93;14.90;;;;;;;8.19;100.00;95649.47;5057609;28;20220;-76
2022/10/05 03:18:58;;;;;;;26.57;13.13;;;;;;;8.22;100.00;95654.28;5054135;28;20216;-75
2022/10/05 03:21:42;;;;;;;15.03;10.10;;;;;;;8.20;100.00;95657.03;5055518;28;20626;-75
2022/10/05 03:24:24;;;;;;;14.90;10.23;;;;;;;8.21;100.00;95653.50;5058167;28;20201;-76
2022/10/05 03:26:58;;;;;;;15.10;10.00;;;;;;;8.26;100.00;95658.13;5059496;28;20197;-76
2022/10/05 03:29:34;;;;;;;21.00;11.50;;;;;;;8.30;100.00;95664.59;5059055;28;20248;-73
2022/10/05 03:32:13;;;;;;;21.07;10.87;;;;;;;8.34;100.00;95664.03;5060026;28;20227;-74
2022/10/05 03:34:45;;;;;;;15.27;8.80;;;;;;;8.33;100.00;95664.25;5058416;28;20201;-74
2022/10/05 03:37:21;;;;;;;11.47;7.70;;;;;;;8.31;100.00;95664.41;5054731;28;20209;-72
2022/10/05 03:39:57;;;;;;;14.30;8.07;;;;;;;8.26;100.00;95677.06;5058062;28;20277;-73
2022/10/05 03:42:33;;;;;;;9.60;7.10;;;;;;;8.26;100.00;95681.44;5056445;28;20201;-73
2022/10/05 03:45:07;;;;;;;14.47;7.67;;;;;;;8.28;100.00;95685.47;5055122;28;20197;-73
2022/10/05 03:47:42;;;;;;;10.47;7.03;;;;;;;8.14;100.00;95691.41;5059563;28;20221;-73
2022/10/05 03:50:36;;;;;;;16.10;7.73;;;;;;;7.71;100.00;95695.53;5056961;28;20201;-73
2022/10/05 03:53:06;;;;;;;13.00;7.20;;;;;;;7.32;100.00;95698.25;5038308;28;20229;-74
2022/10/05 03:55:37;;;;;;;13.37;8.03;;;;;;;7.35;100.00;95697.91;5046156;28;20194;-72
2022/10/05 03:58:12;;;;;;;10.23;7.73;;;;;;;7.46;100.00;95698.47;5062811;28;20201;-73
2022/10/05 04:00:45;;;;;;;10.77;8.10;;;;;;;7.57;100.00;95708.41;5058369;28;20208;-73
2022/10/05 04:03:20;;;;;;;14.40;8.10;;;;;;;7.65;100.00;95705.75;5060572;28;20221;-72
2022/10/05 04:05:50;;;;;;;12.03;8.10;;;;;;;7.75;100.00;95708.94;5059162;28;20201;-72
2022/10/05 04:08:23;;;;;;;15.63;8.20;;;;;;;7.87;100.00;95707.53;5054439;28;20687;-72
2022/10/05 04:10:52;;;;;;;13.70;7.93;;;;;;;7.99;100.00;95708.72;5062736;28;20668;-72
2022/10/05 04:13:23;;;;;;;11.60;7.43;;;;;;;8.02;100.00;95710.97;5060508;28;20663;-72
2022/10/05 04:15:57;;;;;;;14.40;7.10;;;;;;;8.05;100.00;95708.03;5061036;28;20205;-73
2022/10/05 04:18:31;;;;;;;17.77;7.37;;;;;;;8.08;100.00;95717.22;5055035;28;20197;-71
2022/10/05 04:21:04;;;;;;;9.77;7.13;;;;;;;8.04;100.00;95714.19;5058135;28;20216;-75
2022/10/05 04:23:42;;;;;;;10.53;7.63;;;;;;;8.06;100.00;95717.38;5059641;28;20201;-75
2022/10/05 04:26:13;;;;;;;13.43;8.70;;;;;;;7.96;100.00;95716.84;5057837;28;20213;-75
2022/10/05 04:28:50;;;;;;;11.73;7.90;;;;;;;7.94;100.00;95721.38;5060248;28;20292;-75
2022/10/05 04:31:31;;;;;;;19.57;9.37;;;;;;;7.88;100.00;95728.06;5047694;28;20274;-74
2022/10/05 04:34:10;;;;;;;16.77;9.50;;;;;;;7.84;100.00;95723.41;5056161;28;20654;-75
2022/10/05 04:36:48;;;;;;;19.57;10.67;;;;;;;7.80;100.00;95729.91;5055660;28;20208;-75
2022/10/05 04:39:22;;;;;;;16.23;11.20;;;;;;;7.81;100.00;95729.75;5057832;28;20217;-74
2022/10/05 04:42:00;;;;;;;12.93;9.93;;;;;;;7.81;100.00;95734.09;5062861;28;20212;-72
2022/10/05 04:44:48;;;;;;;20.57;12.17;;;;;;;7.84;100.00;95738.94;5053253;28;20680;-75
2022/10/05 04:47:34;;;;;;;23.67;14.17;;;;;;;7.88;100.00;95746.16;5065100;28;20240;-75
2022/10/05 04:50:23;;;;;;;40.70;16.63;;;;;;;7.90;100.00;95748.59;5060463;28;20205;-76
2022/10/05 04:53:00;;;;;;;32.40;15.37;;;;;;;7.88;100.00;95761.69;5061010;28;20217;-77
2022/10/05 04:55:35;;;;;;;27.03;14.43;;;;;;;7.92;100.00;95754.41;5059882;28;20209;-74
2022/10/05 04:58:12;;;;;;;31.30;16.13;;;;;;;7.89;100.00;95749.56;5062547;28;20764;-74
2022/10/05 05:00:54;;;;;;;32.43;16.93;;;;;;;7.93;100.00;95751.66;5056953;28;20201;-76
2022/10/05 05:03:43;;;;;;;27.47;14.97;;;;;;;8.02;100.00;95749.81;5054941;28;20198;-75
2022/10/05 05:06:26;;;;;;;26.07;15.87;;;;;;;8.04;100.00;95747.03;5041905;28;20229;-75
2022/10/05 05:09:21;;;;;;;31.77;17.13;;;;;;;8.04;100.00;95745.25;5056773;28;21018;-77
2022/10/05 05:12:00;;;;;;;32.90;16.73;;;;;;;8.02;100.00;95749.81;5058101;28;20209;-77
2022/10/05 05:14:40;;;;;;;25.67;14.90;;;;;;;8.09;100.00;95744.69;5064669;28;20200;-76
2022/10/05 05:17:21;;;;;;;24.73;15.00;;;;;;;8.18;100.00;95757.41;5063357;28;20216;-74
2022/10/05 05:20:02;;;;;;;25.43;14.10;;;;;;;8.16;100.00;95759.38;5061107;28;20201;-74
2022/10/05 05:22:44;;;;;;;25.23;14.70;;;;;;;8.21;100.00;95754.47;5063243;28;20201;-74
2022/10/05 05:25:25;;;;;;;24.47;14.70;;;;;;;8.26;100.00;95756.53;5055343;28;20713;-74
2022/10/05 05:27:54;;;;;;;25.70;14.63;;;;;;;8.29;100.00;95753.59;5059416;28;20208;-75
2022/10/05 05:30:23;;;;;;;29.67;17.50;;;;;;;8.26;100.00;95753.94;5059978;28;20217;-74
2022/10/05 05:33:06;;;;;;;23.57;17.00;;;;;;;8.26;100.00;95749.56;5063187;28;20230;-72
2022/10/05 05:36:00;;;;;;;32.47;16.07;;;;;;;8.24;100.00;95750.72;5058796;28;20207;-72
2022/10/05 05:38:33;;;;;;;32.00;17.87;;;;;;;8.28;100.00;95757.19;5065437;28;20568;-75
2022/10/05 05:41:08;;;;;;;36.17;18.80;;;;;;;8.31;100.00;95759.44;5063691;28;20209;-75
2022/10/05 05:43:50;;;;;;;33.37;19.17;;;;;;;8.27;100.00;95768.50;5054200;28;20197;-76
2022/10/05 05:46:25;;;;;;;35.93;19.20;;;;;;;8.35;100.00;95761.50;5063340;28;20763;-74
2022/10/05 05:48:53;;;;;;;28.43;18.23;;;;;;;8.42;100.00;95770.19;5057977;28;20203;-75
2022/10/05 05:51:27;;;;;;;37.50;20.53;;;;;;;8.57;100.00;95777.16;5060719;28;20198;-74
2022/10/05 05:54:13;;;;;;;38.33;21.03;;;;;;;8.62;100.00;95769.66;5058361;28;20331;-74
2022/10/05 05:56:44;;;;;;;40.23;23.73;;;;;;;8.70;100.00;95778.13;5063692;28;20206;-75
2022/10/05 05:59:15;;;;;;;47.00;24.20;;;;;;;8.83;100.00;95780.91;5066344;28;20214;-74
2022/10/05 06:01:47;;;;;;;48.97;24.00;;;;;;;8.95;100.00;95776.88;5058052;28;20205;-74
2022/10/05 06:04:18;;;;;;;49.27;22.00;;;;;;;8.95;100.00;95776.88;5054117;28;20208;-75
2022/10/05 06:06:49;;;;;;;32.43;16.43;;;;;;;8.96;100.00;95780.28;5064971;28;20219;-75
2022/10/05 06:09:24;;;;;;;23.20;15.83;;;;;;;8.94;100.00;95777.88;5062111;28;20292;-74
2022/10/05 06:11:54;;;;;;;32.77;15.90;;;;;;;8.99;100.00;95783.31;5058696;28;20205;-74
2022/10/05 06:14:28;;;;;;;29.87;16.17;;;;;;;9.12;100.00;95788.66;5058964;28;20221;-73
2022/10/05 06:17:00;;;;;;;30.70;16.47;;;;;;;9.17;100.00;95792.50;5054711;28;20201;-74
2022/10/05 06:19:29;;;;;;;22.10;12.03;;;;;;;9.25;100.00;95795.81;5054372;28;20598;-76
2022/10/05 06:22:01;;;;;;;18.67;11.30;;;;;;;9.38;100.00;95797.78;5062117;28;20195;-74
2022/10/05 06:24:39;;;;;;;20.50;11.33;;;;;;;9.47;100.00;95804.44;5053842;28;20244;-78
2022/10/05 06:27:25;;;;;;;18.33;11.07;;;;;;;9.55;100.00;95815.50;5057030;28;20662;-78
2022/10/05 06:30:06;;;;;;;16.63;11.07;;;;;;;9.60;100.00;95822.78;5059422;28;20204;-78
2022/10/05 06:32:41;;;;;;;17.13;11.27;;;;;;;9.67;100.00;95827.03;5060364;28;20201;-81
2022/10/05 06:35:16;;;;;;;17.27;11.83;;;;;;;9.59;100.00;95824.56;5062594;28;20196;-74
2022/10/05 06:38:13;;;;;;;18.80;12.10;;;;;;;9.46;100.00;95824.41;5059257;28;20215;-80
2022/10/05 06:40:57;;;;;;;22.60;12.33;;;;;;;9.28;100.00;95828.38;5057547;28;20210;-80
2022/10/05 06:43:46;;;;;;;25.13;13.80;;;;;;;9.20;100.00;95829.28;5066771;28;20252;-80
2022/10/05 06:46:21;;;;;;;22.47;14.67;;;;;;;9.39;100.00;95841.69;5062344;28;20610;-80
2022/10/05 06:49:03;;;;;;;40.50;16.40;;;;;;;9.56;100.00;95847.47;5064563;28;20209;-80
2022/10/05 06:51:38;;;;;;;25.77;16.63;;;;;;;9.77;100.00;95854.50;5060526;28;20786;-75
2022/10/05 06:54:19;;;;;;;25.23;14.80;;;;;;;9.89;100.00;95845.25;5063306;28;20957;-75
2022/10/05 06:56:53;;;;;;;19.97;12.10;;;;;;;10.00;100.00;95853.34;5044183;28;20327;-79
2022/10/05 06:59:25;;;;;;;15.90;11.40;;;;;;;10.04;100.00;95854.56;5058947;28;20209;-78
2022/10/05 07:02:01;;;;;;;17.77;10.70;;;;;;;9.96;100.00;95854.69;5062813;28;20573;-79
2022/10/05 07:04:48;;;;;;;21.67;9.77;;;;;;;9.94;100.00;95848.91;5055627;28;20638;-79
2022/10/05 07:07:23;;;;;;;16.37;10.33;;;;;;;9.90;100.00;95839.84;5062051;28;20209;-78
2022/10/05 07:10:04;;;;;;;17.00;9.57;;;;;;;9.85;100.00;95842.19;5055882;28;20582;-78
2022/10/05 07:12:48;;;;;;;10.07;6.90;;;;;;;9.87;100.00;95840.22;5062165;28;20284;-78
2022/10/05 07:15:37;;;;;;;10.70;7.27;;;;;;;10.04;100.00;95841.59;5062810;28;20288;-77
2022/10/05 07:18:25;;;;;;;9.43;6.70;;;;;;;10.05;100.00;95834.59;5057315;28;20211;-77
2022/10/05 07:21:02;;;;;;;9.83;6.73;;;;;;;10.15;100.00;95842.94;5051313;28;20698;-78
2022/10/05 07:23:45;;;;;;;10.90;7.07;;;;;;;10.08;100.00;95844.63;5059865;28;20193;-77
2022/10/05 07:26:19;;;;;;;11.23;6.53;;;;;;;10.00;100.00;95855.94;5060426;28;20214;-77
2022/10/05 07:28:56;;;;;;;13.47;6.63;;;;;;;10.10;100.00;95843.44;5054974;28;20228;-78
2022/10/05 07:31:29;;;;;;;14.67;7.13;;;;;;;10.26;100.00;95837.25;5055666;28;20212;-77
2022/10/05 07:34:05;;;;;;;10.43;7.17;;;;;;;10.42;100.00;95836.19;5060524;28;20217;-75
2022/10/05 07:39:32;;;;;;;12.87;6.37;;;;;;;10.74;100.00;95830.41;5055599;28;20204;-75
2022/10/05 07:42:09;;;;;;;6.87;5.97;;;;;;;10.86;100.00;95828.09;5059167;28;20247;-75
2022/10/05 07:44:46;;;;;;;7.27;6.03;;;;;;;11.04;100.00;95834.44;5060300;28;21131;-78
2022/10/05 07:47:23;;;;;;;8.57;5.90;;;;;;;11.26;100.00;95837.75;5055718;28;20244;-78
2022/10/05 07:49:56;;;;;;;10.20;5.20;;;;;;;11.38;99.40;95841.41;5058644;28;20293;-79
2022/10/05 07:52:30;;;;;;;10.73;5.70;;;;;;;11.44;100.00;95832.84;5058300;28;20213;-77
2022/10/05 07:55:03;;;;;;;5.37;4.70;;;;;;;11.51;99.18;95836.28;5056639;28;20221;-77
2022/10/05 07:57:39;;;;;;;5.67;4.23;;;;;;;11.50;97.84;95845.06;5063583;28;20601;-78
2022/10/05 08:00:15;;;;;;;7.77;4.70;;;;;;;11.45;98.42;95838.84;5055085;28;20206;-78
2022/10/05 08:02:47;;;;;;;6.33;4.63;;;;;;;11.53;98.46;95842.09;5053127;28;20212;-76
2022/10/05 08:05:22;;;;;;;8.07;5.27;;;;;;;11.49;99.54;95851.28;5061164;28;20208;-77
2022/10/05 08:07:54;;;;;;;7.40;4.97;;;;;;;11.55;99.57;95854.91;5062167;28;20275;-79
2022/10/05 08:10:30;;;;;;;11.53;5.20;;;;;;;11.71;99.73;95857.22;5056482;28;20201;-78
2022/10/05 08:13:10;;;;;;;8.13;5.40;;;;;;;11.83;100.00;95856.44;5062618;28;20200;-78
2022/10/05 08:15:42;;;;;;;7.47;5.90;;;;;;;11.81;100.00;95855.03;5034971;28;20317;-77
2022/10/05 08:18:17;;;;;;;7.83;5.23;;;;;;;11.62;100.00;95848.72;5061755;28;20217;-77
2022/10/05 08:20:48;;;;;;;7.73;5.47;;;;;;;11.74;100.00;95857.63;5056149;28;20205;-78
2022/10/05 08:23:23;;;;;;;8.00;5.27;;;;;;;11.97;100.00;95851.28;5058207;28;20201;-77
2022/10/05 08:26:07;;;;;;;8.43;5.90;;;;;;;12.22;100.00;95857.53;5055995;28;20619;-78
2022/10/05 08:28:38;;;;;;;8.33;6.20;;;;;;;12.57;99.66;95866.00;5053652;28;20194;-78
2022/10/05 08:31:21;;;;;;;12.80;6.50;;;;;;;12.86;97.63;95865.59;5049957;28;20197;-78
2022/10/05 08:33:58;;;;;;;10.07;5.83;;;;;;;13.01;94.82;95869.63;5054570;28;20222;-78
2022/10/05 08:36:36;;;;;;;7.27;4.93;;;;;;;13.12;92.79;95876.06;5056328;28;20221;-75
2022/10/05 08:39:11;;;;;;;7.90;5.20;;;;;;;12.96;91.93;95868.59;5058828;28;20725;-75
2022/10/05 08:42:04;;;;;;;5.83;4.80;;;;;;;12.75;93.68;95859.19;5052614;28;20205;-75
2022/10/05 08:45:10;;;;;;;7.23;4.83;;;;;;;13.07;92.65;95863.59;5027119;28;20909;-76
2022/10/05 08:48:19;;;;;;;6.40;4.53;;;;;;;13.48;89.04;95858.09;5051216;28;20241;-77
2022/10/05 08:51:20;;;;;;;14.40;4.90;;;;;;;13.91;86.91;95860.16;5053977;28;20201;-76
2022/10/05 08:54:22;;;;;;;10.57;4.97;;;;;;;14.36;83.71;95859.09;5065145;28;20318;-76
2022/10/05 08:57:04;;;;;;;10.13;4.87;;;;;;;14.82;81.53;95860.56;5065551;28;20232;-76
2022/10/05 09:00:06;;;;;;;6.37;4.50;;;;;;;15.26;79.45;95863.00;5057331;28;20240;-76
2022/10/05 09:02:56;;;;;;;5.43;4.00;;;;;;;15.52;75.89;95861.94;5057020;28;20201;-77
2022/10/05 09:06:03;;;;;;;5.87;4.30;;;;;;;15.65;73.52;95859.97;5056635;28;20206;-77
2022/10/05 09:08:56;;;;;;;6.13;3.93;;;;;;;15.72;72.67;95868.56;5056906;28;20209;-76
2022/10/05 09:11:30;;;;;;;6.60;3.87;;;;;;;15.59;73.29;95865.28;5049638;28;20296;-76
2022/10/05 09:14:11;;;;;;;3.50;3.20;;;;;;;15.64;72.74;95865.44;5059508;28;20295;-76
2022/10/05 09:17:04;;;;;;;5.27;3.30;;;;;;;15.83;70.61;95872.28;5062636;28;20212;-77
2022/10/05 09:20:03;;;;;;;6.70;3.37;;;;;;;16.14;69.44;95869.44;5056415;28;20307;-73
2022/10/05 09:22:45;;;;;;;6.97;3.60;;;;;;;15.96;71.89;95873.94;5053638;28;20201;-74
2022/10/05 09:25:22;;;;;;;4.33;3.10;;;;;;;15.56;73.10;95870.97;5059211;28;20240;-77
2022/10/05 09:27:56;;;;;;;5.23;3.13;;;;;;;15.78;71.83;95872.13;5067378;28;20209;-81
2022/10/05 09:30:41;;;;;;;4.47;2.90;;;;;;;16.48;70.26;95870.59;5063356;28;20201;-77
2022/10/05 09:33:35;;;;;;;6.70;2.67;;;;;;;17.17;67.02;95874.38;5066789;28;20288;-77
2022/10/05 09:36:54;;;;;;;5.50;2.53;;;;;;;17.55;62.57;95879.97;5053417;28;20202;-76
2022/10/05 09:39:56;;;;;;;6.47;2.70;;;;;;;17.93;61.39;95868.91;5059413;28;20206;-76
2022/10/05 09:42:46;;;;;;;3.77;2.90;;;;;;;18.57;60.06;95883.56;5062822;28;20206;-76
2022/10/05 09:45:37;;;;;;;3.20;2.47;;;;;;;18.60;59.45;95883.09;5058658;28;20232;-77
2022/10/05 09:48:40;;;;;;;4.17;2.53;;;;;;;18.87;58.24;95873.56;5065101;28;20194;-76
2022/10/05 09:51:48;;;;;;;3.92;2.58;;;;;;;19.49;55.40;95882.16;5061939;28;20201;-76
2022/10/05 09:54:48;;;;;;;6.70;2.42;;;;;;;18.81;56.69;95892.16;5068197;28;20734;-77
2022/10/05 09:58:13;;;;;;;4.45;2.50;;;;;;;18.45;59.12;95888.06;5060424;28;20675;-78
2022/10/05 10:01:06;;;;;;;4.50;2.33;;;;;;;19.21;57.58;95887.50;5025838;28;20298;-78
2022/10/05 10:04:08;;;;;;;5.03;2.33;;;;;;;19.98;54.85;95877.75;5062993;28;20242;-78
2022/10/05 10:07:20;;;;;;;4.88;2.50;;;;;;;20.68;52.80;95876.94;5058572;28;20270;-77
2022/10/05 10:10:29;;;;;;;4.45;2.33;;;;;;;21.20;50.89;95882.44;5007646;28;20784;-76
2022/10/05 10:13:22;;;;;;;7.40;2.88;;;;;;;21.63;48.48;95889.31;4962034;28;20782;-77
2022/10/05 10:16:07;;;;;;;3.75;2.60;;;;;;;22.07;47.89;95890.63;5051535;28;20232;-78
2022/10/05 10:19:22;;;;;;;4.72;2.50;;;;;;;22.43;46.45;95899.47;5060885;28;20193;-77
2022/10/05 10:22:16;;;;;;;3.53;2.90;;;;;;;22.67;45.73;95899.81;5016643;28;20375;-77
2022/10/05 10:24:58;;;;;;;5.18;2.40;;;;;;;22.86;44.79;95885.78;5026727;28;20205;-77
2022/10/05 10:27:46;;;;;;;4.10;2.40;;;;;;;23.29;44.15;95899.59;5060736;28;20639;-78
2022/10/05 10:30:40;;;;;;;4.93;2.60;;;;;;;23.53;43.70;95896.13;5055499;28;20206;-77
2022/10/05 10:33:28;;;;;;;7.05;3.05;;;;;;;23.80;41.80;95893.16;5058724;28;20193;-79
2022/10/05 10:36:02;;;;;;;4.10;2.60;;;;;;;23.57;41.35;95885.78;5060287;28;20190;-78
2022/10/05 10:38:36;;;;;;;3.63;2.45;;;;;;;23.65;41.41;95887.88;5059315;28;20675;-78
2022/10/05 10:41:28;;;;;;;4.25;2.40;;;;;;;23.95;42.05;95885.13;5057417;28;20563;-77
2022/10/05 10:44:29;;;;;;;3.38;2.40;;;;;;;24.18;39.55;95878.44;5060380;28;20248;-78
2022/10/05 10:47:27;;;;;;;3.75;2.33;;;;;;;24.43;40.27;95872.97;5063227;28;20274;-72
2022/10/05 10:50:24;;;;;;;3.15;2.10;;;;;;;24.69;39.09;95876.28;5060249;28;20564;-81
2022/10/05 10:53:08;;;;;;;4.95;2.40;;;;;;;25.09;37.90;95872.53;5058533;28;20675;-78
2022/10/05 10:55:41;;;;;;;6.15;2.45;;;;;;;25.32;37.43;95877.94;5058353;28;20205;-79
2022/10/05 10:58:39;;;;;;;7.10;2.40;;;;;;;25.48;35.05;95878.63;5058189;28;20285;-79
2022/10/05 11:01:22;;;;;;;4.13;2.05;;;;;;;25.59;34.39;95873.97;5059352;28;20225;-79
2022/10/05 11:04:28;;;;;;;5.53;1.90;;;;;;;25.64;34.25;95863.25;5061442;28;20209;-79
2022/10/05 11:07:23;;;;;;;4.70;2.13;;;;;;;25.82;33.53;95866.00;5056560;28;20197;-77
2022/10/05 11:10:26;;;;;;;2.80;1.70;;;;;;;25.96;32.25;95852.78;5060535;28;20194;-77
2022/10/05 11:13:17;;;;;;;2.95;1.90;;;;;;;25.44;32.67;95850.13;5060146;28;20212;-78
2022/10/05 11:16:00;;;;;;;3.60;2.20;;;;;;;25.52;33.25;95844.22;5058077;28;20229;-77
2022/10/05 11:18:41;;;;;;;3.20;2.00;;;;;;;24.77;32.96;95839.25;5060372;28;20185;-77
2022/10/05 11:21:24;;;;;;;3.97;2.05;;;;;;;24.71;34.36;95837.69;5058359;28;21216;-77
2022/10/05 11:24:27;;;;;;;3.88;2.25;;;;;;;25.18;33.69;95837.06;5060905;28;20246;-76
2022/10/05 11:27:07;;;;;;;3.38;1.92;;;;;;;25.76;33.58;95837.81;5057420;28;20205;-80
2022/10/05 11:30:40;;;;;;;3.65;1.90;;;;;;;25.93;32.63;95838.16;5054612;28;20671;-79
2022/10/05 11:33:37;;;;;;;5.68;2.20;;;;;;;26.24;31.36;95840.44;4974982;28;20195;-80
2022/10/05 11:36:52;;;;;;;4.43;1.98;;;;;;;26.69;30.79;95839.00;4968253;28;20686;-81
2022/10/05 11:39:57;;;;;;;2.55;1.88;;;;;;;27.30;31.32;95836.19;5054889;28;20582;-78
2022/10/05 11:42:57;;;;;;;3.67;2.15;;;;;;;27.45;30.09;95838.59;5049372;28;20585;-78
2022/10/05 11:45:29;;;;;;;4.90;2.13;;;;;;;27.15;30.10;95834.56;5057311;28;20197;-78
2022/10/05 11:48:16;;;;;;;4.05;2.03;;;;;;;26.88;29.95;95829.13;5061276;28;20236;-77
2022/10/05 11:50:54;;;;;;;4.55;2.25;;;;;;;26.64;29.96;95836.44;5058076;28;20207;-78
2022/10/05 11:53:29;;;;;;;2.22;2.03;;;;;;;25.69;31.70;95823.25;5059575;28;20197;-76
2022/10/05 11:56:05;;;;;;;2.60;2.10;;;;;;;25.57;30.89;95823.63;5056496;28;20227;-76
2022/10/05 11:58:36;;;;;;;6.78;2.20;;;;;;;25.41;31.21;95811.53;5058622;28;20184;-76
2022/10/05 12:01:13;;;;;;;4.03;1.80;;;;;;;25.44;31.67;95802.19;5058916;28;20205;-76
2022/10/05 12:03:50;;;;;;;7.55;2.03;;;;;;;25.73;31.73;95800.28;5059823;28;20193;-76
2022/10/05 12:06:33;;;;;;;4.80;2.15;;;;;;;26.04;31.34;95800.69;5056871;28;20194;-76
2022/10/05 12:09:15;;;;;;;3.85;2.00;;;;;;;26.29;29.68;95811.84;5056512;28;20251;-75
2022/10/05 12:12:07;;;;;;;4.32;1.63;;;;;;;26.61;29.32;95811.09;5061761;28;20205;-75
2022/10/05 12:14:44;;;;;;;2.05;1.70;;;;;;;27.01;29.15;95817.72;5054989;28;20229;-75
2022/10/05 12:17:28;;;;;;;6.40;2.08;;;;;;;27.40;28.86;95820.75;5057850;28;20849;-76
2022/10/05 12:30:26;;;;;;;2.17;1.50;;;;;;;28.01;25.72;95816.91;5042783;28;20176;-76
2022/10/05 12:33:02;;;;;;;1.80;1.35;;;;;;;28.55;26.10;95818.69;5008153;28;20203;-77
2022/10/05 12:39:21;;;;;;;2.10;1.30;;;;;;;29.68;25.04;95822.59;4987534;28;20618;-76
2022/10/05 12:41:55;;;;;;;3.65;1.63;;;;;;;29.68;24.52;95819.13;4971472;28;20205;-78